Chem Orion — V7GZ9 — position and weather

sailwx.info

Track history (hours):
 
Tides and Currents Weather Stations Pressure Air Temp Water Temp Dewpoint Dewpoint Depression Visibility Wind Speed Wind Dir Waves Ship Positions

Chem Orion

Last reported at 2014-Aug-29 03:31 UTC. Time now 2014-Aug-29 08:08 UTC.
Position N 54°37' E 011°06'.

Length 125 m; draft 8.3 m.

Type: Ship (hazmat cat D). MMSI: 538002197.

Date/timePositionNaut miles runAvg speedWind from/ knotsBaromVisibWave heightAir tempDewpointWater temp
2014-Aug-29 03:31N 54°37' E 011°06'1212.0
2014-Aug-29 02:33N 54°33' E 011°25'1211.5
2014-Aug-29 01:33N 54°27' E 011°43'1211.6
2014-Aug-29 00:33N 54°26' E 012°02'10 9.7
2014-Aug-28 23:33N 54°33' E 012°13'1010.2
2014-Aug-28 22:33N 54°41' E 012°24'1110.8
2014-Aug-28 21:33N 54°47' E 012°40'1111.3
2014-Aug-28 20:33N 54°51' E 012°58'1211.3
2014-Aug-28 19:31N 54°55' E 013°17'1010.8
2014-Aug-28 18:33N 54°59' E 013°34'1110.9
2014-Aug-28 17:33N 55°02' E 013°53'1210.6
2014-Aug-28 16:26N 55°09' E 014°09'1010.9
2014-Aug-28 15:33N 55°16' E 014°20'1210.8
2014-Aug-28 14:29N 55°25' E 014°33'9 9.9
2014-Aug-28 13:33N 55°27' E 014°49'5710.5
2014-Aug-28 08:05N 55°19' E 016°29'610.6
2014-Aug-28 07:32N 55°18' E 016°39'1110.6
2014-Aug-28 06:31N 55°15' E 016°57'2410.7
2014-Aug-28 04:16N 55°09' E 017°38'710.4
2014-Aug-28 03:33N 55°08' E 017°51'1010.2
2014-Aug-28 02:33N 55°06' E 018°09'1010.5
2014-Aug-28 01:33N 55°04' E 018°27'1110.8
2014-Aug-28 00:33N 54°59' E 018°44'1110.6
2014-Aug-27 23:34N 54°55' E 019°00'1010.4
2014-Aug-27 22:33N 54°50' E 019°17'1010.2
2014-Aug-27 21:33N 54°47' E 019°33'10 9.9
2014-Aug-27 20:33N 54°41' E 019°47'8 7.8
2014-Aug-27 19:32N 54°38' E 020°00'7 0.2
2014-Aug-26 01:10N 54°41' E 020°12'4 5.8
2014-Aug-26 00:31N 54°39' E 020°07'9 8.2
2014-Aug-25 23:28N 54°39' E 019°52'2 0.7
2014-Aug-25 21:21N 54°39' E 019°49'0 0.0
2014-Aug-25 20:33N 54°39' E 019°49'1 0.7
2014-Aug-25 19:30N 54°40' E 019°48'8 8.5
2014-Aug-25 18:34N 54°44' E 019°37'1211.7
2014-Aug-25 17:33N 54°50' E 019°18'1211.7
2014-Aug-25 16:33N 54°55' E 019°00'1111.6
2014-Aug-25 15:34N 54°60' E 018°42'1 0.7
2014-Aug-25 14:33N 55°00' E 018°41'1111.4
2014-Aug-25 13:33N 55°04' E 018°22'1 1.1
2014-Aug-25 12:33N 55°04' E 018°21'2 1.6
2014-Aug-25 11:33N 55°04' E 018°23'1211.6
2014-Aug-25 10:33N 55°06' E 018°04'10710.7
2014-Aug-25 00:32N 55°24' E 014°58'1211.8
2014-Aug-24 23:32N 55°23' E 014°38'1212.2
2014-Aug-24 22:33N 55°13' E 014°25'1211.9
2014-Aug-24 21:31N 55°04' E 014°12'1312.0
2014-Aug-24 20:27N 54°58' E 013°52'1112.6
2014-Aug-24 19:33N 54°54' E 013°33'1211.8
2014-Aug-24 18:33N 54°51' E 013°13'1211.6
2014-Aug-24 17:33N 54°47' E 012°55'1212.2
2014-Aug-24 16:33N 54°41' E 012°36'1511.8
2014-Aug-24 15:16N 54°31' E 012°17'811.6
2014-Aug-24 14:33N 54°24' E 012°08'1312.8
2014-Aug-24 13:33N 54°24' E 011°46'75 8.4
2014-Aug-24 04:33N 54°16' E 009°37'8 7.7
2014-Aug-24 03:33N 54°11' E 009°27'7 7.4
2014-Aug-24 02:33N 54°05' E 009°19'8 8.0
2014-Aug-24 01:33N 53°58' E 009°15'5 5.4
2014-Aug-24 00:33N 53°54' E 009°09'2 2.3
2014-Aug-23 23:33N 53°53' E 009°05'1212.1
2014-Aug-23 22:33N 53°51' E 008°45'1312.8
2014-Aug-23 21:33N 53°59' E 008°27'1312.6
2014-Aug-23 20:33N 53°59' E 008°05'1312.9
2014-Aug-23 19:33N 54°06' E 007°46'16410.2
2014-Aug-23 03:32N 52°56' E 003°36'1212.0
2014-Aug-23 02:32N 52°48' E 003°50'1212.2
2014-Aug-23 01:33N 52°39' E 004°03'1111.4
2014-Aug-23 00:33N 52°31' E 004°17'1110.6
2014-Aug-22 23:33N 52°28' E 004°33'3 2.8
2014-Aug-22 22:34N 52°28' E 004°38'8 8.0
2014-Aug-22 21:34N 52°25' E 004°50'0 0.5
2014-Aug-22 20:33N 52°25' E 004°51'0 0.0
2014-Aug-22 19:33N 52°25' E 004°51'0 0.0
2014-Aug-22 18:33N 52°25' E 004°51'0 0.0
2014-Aug-22 17:33N 52°25' E 004°51'0 0.0
2014-Aug-22 16:33N 52°25' E 004°51'0 0.0
2014-Aug-22 15:33N 52°25' E 004°51'0 0.0
2014-Aug-22 14:33N 52°25' E 004°51'0 0.0
2014-Aug-22 13:33N 52°25' E 004°51'0 0.0
2014-Aug-22 12:33N 52°25' E 004°51'0 0.0
2014-Aug-22 11:33N 52°25' E 004°51'0 0.0
2014-Aug-22 10:33N 52°25' E 004°51'0 0.0
2014-Aug-22 09:33N 52°25' E 004°51'0 0.0
2014-Aug-22 08:33N 52°25' E 004°51'0 0.0
2014-Aug-22 07:33N 52°25' E 004°51'0 0.0
2014-Aug-22 06:33N 52°25' E 004°51'0 0.0
2014-Aug-22 05:32N 52°25' E 004°51'0 0.0
2014-Aug-22 04:32N 52°25' E 004°51'0 0.0
2014-Aug-22 03:32N 52°25' E 004°51'0 0.0
2014-Aug-22 02:32N 52°25' E 004°51'0 0.0
2014-Aug-22 01:32N 52°25' E 004°51'0 0.0
2014-Aug-22 00:32N 52°25' E 004°51'0 0.0
2014-Aug-21 23:32N 52°25' E 004°51'0 0.0
2014-Aug-21 22:17N 52°25' E 004°51'0 0.0
2014-Aug-21 21:32N 52°25' E 004°51'0 0.0
2014-Aug-21 20:32N 52°25' E 004°51'0 0.0
2014-Aug-21 19:32N 52°25' E 004°51'1 0.8
2014-Aug-21 18:34N 52°25' E 004°50'8 8.0
2014-Aug-21 17:34N 52°28' E 004°37'3 2.8
2014-Aug-21 16:34N 52°28' E 004°33'7 7.5
2014-Aug-21 15:34N 52°28' E 004°20'1110.6
2014-Aug-21 14:33N 52°28' E 004°03'1212.3
2014-Aug-21 13:33N 52°23' E 003°44'36 5.7
2014-Aug-21 07:14N 52°01' E 002°57'5 7.0
2014-Aug-21 06:34N 51°58' E 002°51'11 5.2
2014-Aug-21 04:22N 51°47' E 002°56'6 7.8
2014-Aug-21 03:32N 51°46' E 003°06'9 8.4
2014-Aug-21 02:29N 51°41' E 003°18'1111.5
2014-Aug-21 01:31N 51°31' E 003°26'10 9.9
2014-Aug-21 00:34N 51°25' E 003°38'1111.3
2014-Aug-20 23:33N 51°23' E 003°56'7 6.6
2014-Aug-20 22:33N 51°22' E 004°06'7 7.2
2014-Aug-20 21:34N 51°19' E 004°16'6 6.4
2014-Aug-20 20:34N 51°14' E 004°24'7 6.5
2014-Aug-20 19:32N 51°08' E 004°20'3 2.4
2014-Aug-20 18:18N 51°05' E 004°21'0 0.0
2014-Aug-20 15:20N 51°05' E 004°21'0 0.0
2014-Aug-20 13:24N 51°05' E 004°21'0 0.0
2014-Aug-20 12:09N 51°05' E 004°21'0 0.0
2014-Aug-20 11:33N 51°05' E 004°21'0 0.0
2014-Aug-20 10:32N 51°05' E 004°21'0 0.0
2014-Aug-20 09:29N 51°05' E 004°21'0 0.0
2014-Aug-20 08:27N 51°05' E 004°21'0 0.0
2014-Aug-20 07:33N 51°05' E 004°21'0 0.0
2014-Aug-20 06:33N 51°05' E 004°21'0 0.0
2014-Aug-20 05:32N 51°05' E 004°21'0 0.0
2014-Aug-20 04:32N 51°05' E 004°21'0 0.0
2014-Aug-20 03:32N 51°05' E 004°21'0 0.0
2014-Aug-20 02:20N 51°05' E 004°21'0 0.0
2014-Aug-20 01:33N 51°05' E 004°21'0 0.0
2014-Aug-20 00:27N 51°05' E 004°21'0 0.0
2014-Aug-19 23:33N 51°05' E 004°21'0 0.0
2014-Aug-19 22:33N 51°05' E 004°21'0 0.0
2014-Aug-19 21:27N 51°05' E 004°21'0 0.0
2014-Aug-19 07:26N 51°05' E 004°21'  
Track history (hours):
 
Tides and Currents Weather Stations Pressure Air Temp Water Temp Dewpoint Dewpoint Depression Visibility Wind Speed Wind Dir Waves Ship Positions

Chem Orion

Last reported at 2014-Aug-29 03:31 UTC. Time now 2014-Aug-29 08:08 UTC.
Position N 54°37' E 011°06'.

Length 125 m; draft 8.3 m.

Type: Ship (hazmat cat D). MMSI: 538002197.

Date/timePositionNaut miles runAvg speedWind from/ knotsBaromVisibWave heightAir tempDewpointWater temp
2014-Aug-29 03:31N 54°37' E 011°06'1212.0
2014-Aug-29 02:33N 54°33' E 011°25'1211.5
2014-Aug-29 01:33N 54°27' E 011°43'1211.6
2014-Aug-29 00:33N 54°26' E 012°02'10 9.7
2014-Aug-28 23:33N 54°33' E 012°13'1010.2
2014-Aug-28 22:33N 54°41' E 012°24'1110.8
2014-Aug-28 21:33N 54°47' E 012°40'1111.3
2014-Aug-28 20:33N 54°51' E 012°58'1211.3
2014-Aug-28 19:31N 54°55' E 013°17'1010.8
2014-Aug-28 18:33N 54°59' E 013°34'1110.9
2014-Aug-28 17:33N 55°02' E 013°53'1210.6
2014-Aug-28 16:26N 55°09' E 014°09'1010.9
2014-Aug-28 15:33N 55°16' E 014°20'1210.8
2014-Aug-28 14:29N 55°25' E 014°33'9 9.9
2014-Aug-28 13:33N 55°27' E 014°49'5710.5
2014-Aug-28 08:05N 55°19' E 016°29'610.6
2014-Aug-28 07:32N 55°18' E 016°39'1110.6
2014-Aug-28 06:31N 55°15' E 016°57'2410.7
2014-Aug-28 04:16N 55°09' E 017°38'710.4
2014-Aug-28 03:33N 55°08' E 017°51'1010.2
2014-Aug-28 02:33N 55°06' E 018°09'1010.5
2014-Aug-28 01:33N 55°04' E 018°27'1110.8
2014-Aug-28 00:33N 54°59' E 018°44'1110.6
2014-Aug-27 23:34N 54°55' E 019°00'1010.4
2014-Aug-27 22:33N 54°50' E 019°17'1010.2
2014-Aug-27 21:33N 54°47' E 019°33'10 9.9
2014-Aug-27 20:33N 54°41' E 019°47'8 7.8
2014-Aug-27 19:32N 54°38' E 020°00'7 0.2
2014-Aug-26 01:10N 54°41' E 020°12'4 5.8
2014-Aug-26 00:31N 54°39' E 020°07'9 8.2
2014-Aug-25 23:28N 54°39' E 019°52'2 0.7
2014-Aug-25 21:21N 54°39' E 019°49'0 0.0
2014-Aug-25 20:33N 54°39' E 019°49'1 0.7
2014-Aug-25 19:30N 54°40' E 019°48'8 8.5
2014-Aug-25 18:34N 54°44' E 019°37'1211.7
2014-Aug-25 17:33N 54°50' E 019°18'1211.7
2014-Aug-25 16:33N 54°55' E 019°00'1111.6
2014-Aug-25 15:34N 54°60' E 018°42'1 0.7
2014-Aug-25 14:33N 55°00' E 018°41'1111.4
2014-Aug-25 13:33N 55°04' E 018°22'1 1.1
2014-Aug-25 12:33N 55°04' E 018°21'2 1.6
2014-Aug-25 11:33N 55°04' E 018°23'1211.6
2014-Aug-25 10:33N 55°06' E 018°04'10710.7
2014-Aug-25 00:32N 55°24' E 014°58'1211.8
2014-Aug-24 23:32N 55°23' E 014°38'1212.2
2014-Aug-24 22:33N 55°13' E 014°25'1211.9
2014-Aug-24 21:31N 55°04' E 014°12'1312.0
2014-Aug-24 20:27N 54°58' E 013°52'1112.6
2014-Aug-24 19:33N 54°54' E 013°33'1211.8
2014-Aug-24 18:33N 54°51' E 013°13'1211.6
2014-Aug-24 17:33N 54°47' E 012°55'1212.2
2014-Aug-24 16:33N 54°41' E 012°36'1511.8
2014-Aug-24 15:16N 54°31' E 012°17'811.6
2014-Aug-24 14:33N 54°24' E 012°08'1312.8
2014-Aug-24 13:33N 54°24' E 011°46'75 8.4
2014-Aug-24 04:33N 54°16' E 009°37'8 7.7
2014-Aug-24 03:33N 54°11' E 009°27'7 7.4
2014-Aug-24 02:33N 54°05' E 009°19'8 8.0
2014-Aug-24 01:33N 53°58' E 009°15'5 5.4
2014-Aug-24 00:33N 53°54' E 009°09'2 2.3
2014-Aug-23 23:33N 53°53' E 009°05'1212.1
2014-Aug-23 22:33N 53°51' E 008°45'1312.8
2014-Aug-23 21:33N 53°59' E 008°27'1312.6
2014-Aug-23 20:33N 53°59' E 008°05'1312.9
2014-Aug-23 19:33N 54°06' E 007°46'16410.2
2014-Aug-23 03:32N 52°56' E 003°36'1212.0
2014-Aug-23 02:32N 52°48' E 003°50'1212.2
2014-Aug-23 01:33N 52°39' E 004°03'1111.4
2014-Aug-23 00:33N 52°31' E 004°17'1110.6
2014-Aug-22 23:33N 52°28' E 004°33'3 2.8
2014-Aug-22 22:34N 52°28' E 004°38'8 8.0
2014-Aug-22 21:34N 52°25' E 004°50'0 0.5
2014-Aug-22 20:33N 52°25' E 004°51'0 0.0
2014-Aug-22 19:33N 52°25' E 004°51'0 0.0
2014-Aug-22 18:33N 52°25' E 004°51'0 0.0
2014-Aug-22 17:33N 52°25' E 004°51'0 0.0
2014-Aug-22 16:33N 52°25' E 004°51'0 0.0
2014-Aug-22 15:33N 52°25' E 004°51'0 0.0
2014-Aug-22 14:33N 52°25' E 004°51'0 0.0
2014-Aug-22 13:33N 52°25' E 004°51'0 0.0
2014-Aug-22 12:33N 52°25' E 004°51'0 0.0
2014-Aug-22 11:33N 52°25' E 004°51'0 0.0
2014-Aug-22 10:33N 52°25' E 004°51'0 0.0
2014-Aug-22 09:33N 52°25' E 004°51'0 0.0
2014-Aug-22 08:33N 52°25' E 004°51'0 0.0
2014-Aug-22 07:33N 52°25' E 004°51'0 0.0
2014-Aug-22 06:33N 52°25' E 004°51'0 0.0
2014-Aug-22 05:32N 52°25' E 004°51'0 0.0
2014-Aug-22 04:32N 52°25' E 004°51'0 0.0
2014-Aug-22 03:32N 52°25' E 004°51'0 0.0
2014-Aug-22 02:32N 52°25' E 004°51'0 0.0
2014-Aug-22 01:32N 52°25' E 004°51'0 0.0
2014-Aug-22 00:32N 52°25' E 004°51'0 0.0
2014-Aug-21 23:32N 52°25' E 004°51'0 0.0
2014-Aug-21 22:17N 52°25' E 004°51'0 0.0
2014-Aug-21 21:32N 52°25' E 004°51'0 0.0
2014-Aug-21 20:32N 52°25' E 004°51'0 0.0
2014-Aug-21 19:32N 52°25' E 004°51'1 0.8
2014-Aug-21 18:34N 52°25' E 004°50'8 8.0
2014-Aug-21 17:34N 52°28' E 004°37'3 2.8
2014-Aug-21 16:34N 52°28' E 004°33'7 7.5
2014-Aug-21 15:34N 52°28' E 004°20'1110.6
2014-Aug-21 14:33N 52°28' E 004°03'1212.3
2014-Aug-21 13:33N 52°23' E 003°44'36 5.7
2014-Aug-21 07:14N 52°01' E 002°57'5 7.0
2014-Aug-21 06:34N 51°58' E 002°51'11 5.2
2014-Aug-21 04:22N 51°47' E 002°56'6 7.8
2014-Aug-21 03:32N 51°46' E 003°06'9 8.4
2014-Aug-21 02:29N 51°41' E 003°18'1111.5
2014-Aug-21 01:31N 51°31' E 003°26'10 9.9
2014-Aug-21 00:34N 51°25' E 003°38'1111.3
2014-Aug-20 23:33N 51°23' E 003°56'7 6.6
2014-Aug-20 22:33N 51°22' E 004°06'7 7.2
2014-Aug-20 21:34N 51°19' E 004°16'6 6.4
2014-Aug-20 20:34N 51°14' E 004°24'7 6.5
2014-Aug-20 19:32N 51°08' E 004°20'3 2.4
2014-Aug-20 18:18N 51°05' E 004°21'0 0.0
2014-Aug-20 15:20N 51°05' E 004°21'0 0.0
2014-Aug-20 13:24N 51°05' E 004°21'0 0.0
2014-Aug-20 12:09N 51°05' E 004°21'0 0.0
2014-Aug-20 11:33N 51°05' E 004°21'0 0.0
2014-Aug-20 10:32N 51°05' E 004°21'0 0.0
2014-Aug-20 09:29N 51°05' E 004°21'0 0.0
2014-Aug-20 08:27N 51°05' E 004°21'0 0.0
2014-Aug-20 07:33N 51°05' E 004°21'0 0.0
2014-Aug-20 06:33N 51°05' E 004°21'0 0.0
2014-Aug-20 05:32N 51°05' E 004°21'0 0.0
2014-Aug-20 04:32N 51°05' E 004°21'0 0.0
2014-Aug-20 03:32N 51°05' E 004°21'0 0.0
2014-Aug-20 02:20N 51°05' E 004°21'0 0.0
2014-Aug-20 01:33N 51°05' E 004°21'0 0.0
2014-Aug-20 00:27N 51°05' E 004°21'0 0.0
2014-Aug-19 23:33N 51°05' E 004°21'0 0.0
2014-Aug-19 22:33N 51°05' E 004°21'0 0.0
2014-Aug-19 21:27N 51°05' E 004°21'0 0.0
2014-Aug-19 07:26N 51°05' E 004°21'  

Dump ship's entire track history